KCLE/CLE METAR and TAF weather

Enter ICAO airport designator
Station Type Date Time Source
KCLE METAR 2019/11/18 13:51 UTC NOAA

KCLE 181351Z 14003KT 10SM SCT120 BKN250 03/M01 A2982 RMK AO2 SLP105 T00331006


Station Type Date Time Source
KCLE Decoded METAR 2019/11/18 13:51 UTC NOAA

CLEVELAND-HOPKINS INTERNATIONAL , OH, United States (KCLE) 41-24N 081-51W 236M
Nov 18, 2019 - 08:51 AM EST / 2019.11.18 1351 UTC
Wind: from the SE (140 degrees) at 3 MPH (3 KT):0
Visibility: 10 mile(s):0
Sky conditions: mostly cloudy
Temperature: 37.9 F (3.3 C)
Dew Point: 30.9 F (-0.6 C)
Relative Humidity: 75%
Pressure (altimeter): 29.82 in. Hg (1009 hPa)
ob: KCLE 181351Z 14003KT 10SM SCT120 BKN250 03/M01 A2982 RMK AO2 SLP105 T00331006
cycle: 14

Station Type Date Time Source
KCLE TAF 2019/11/18 12:36 UTC NOAA

TAF KCLE 181133Z 1812/1918 14004KT P6SM SCT120
FM181800 34004KT P6SM SCT250
FM190600 22003KT P6SM BKN030
FM191200 24004KT P6SM OVC010

Example: see airport list